Hanes, North Carolina
Current Conditions -  °F | °C
As of 12:54 PM on Friday 28 Nov 2014 (Local Time) from KINT Reporting Station
Clear Clear  
Wind Chill: 35°   Ceiling: Unl
Heat Index: 40°   Visibility: 10mi
Dew Point: 16°   Wind: 7mph
Humidity: 38%   Direction: 300°WNW
Pressure: 30.31"   Gusts: NA
Location:  36.0595°N, 80.3192°W
Report Text: KINT 281754Z 30006KT 10SM CLR 04/M09 A3031 RMK AO2 SLP267 T00441089 10050 21011 58020
Loading
Personal Weather Stations






























Interactive Weather Map New forecast layout! Learn more

10-Day Weather Forecast

Advertisements
Track Severe Weather on mobile